Terminal Aerodrome Forecast
Issued by NWS San Angelo, TX

Home | Current Version | Previous Version | Text Only | Print | Product List | Glossary On
Versions: 1 2 3 4 5 6 7 8 9 10 11 12 13 14 15
000
FTUS44 KSJT 181700
TAFABI
TAF
KABI 181739Z 1818/1918 35007KT P6SM SCT250
     FM190500 05006KT 6SM BR BKN015
     FM190800 06007KT 4SM BR VCSH OVC007
     FM191600 03006KT 6SM BR OVC015=

USA.gov is the U.S. government's official web portal to all federal, state and local government web resources and services.